Terminal Aerodrome Forecast
Issued by NWS

Home | Current Version | Previous Version | Text Only | Print | Product List | Glossary On
Versions: 1 2 3 4 5 6 7 8 9 10 11 12 13 14 15 16 17
389
FTUS42 KILM 300520
TAFCRE
TAF
KCRE 300520Z 3006/0106 15004KT P6SM BKN300
     FM301100 09006KT 4SM BR OVC007
     FM301500 12008KT P6SM OVC025
     FM010300 14010KT P6SM OVC007=

USA.gov is the U.S. government's official web portal to all federal, state and local government web resources and services.